createdAt,value
2018-08-03T00:01:13.698Z,15.17
2018-08-03T00:07:08.695Z,15.37
2018-08-03T00:13:03.694Z,13.67
2018-08-03T00:18:58.747Z,12.24
2018-08-03T00:24:53.725Z,17.05
2018-08-03T00:30:48.726Z,16.61
2018-08-03T00:36:43.719Z,16.42
2018-08-03T00:42:38.718Z,15.53
2018-08-03T00:48:33.777Z,11.97
2018-08-03T00:54:28.725Z,15.88
2018-08-03T01:00:23.736Z,13.79
2018-08-03T01:06:18.748Z,14.38
2018-08-03T01:12:13.739Z,13.63
2018-08-03T01:18:08.751Z,13.86
2018-08-03T01:24:03.764Z,14.47
2018-08-03T01:29:58.824Z,11.36
2018-08-03T01:35:53.754Z,10.85
2018-08-03T01:41:48.771Z,10.08
2018-08-03T01:47:43.782Z,13.43
2018-08-03T01:53:38.774Z,13.26
2018-08-03T01:59:33.785Z,12.94
2018-08-03T02:05:28.783Z,13.02
2018-08-03T02:11:23.790Z,13.35
2018-08-03T02:17:18.806Z,15.72
2018-08-03T02:23:13.774Z,14.41
2018-08-03T02:29:08.826Z,13.4
2018-08-03T02:35:03.833Z,15.66
2018-08-03T02:40:58.808Z,13.1
2018-08-03T02:46:53.817Z,11.55
2018-08-03T02:52:48.810Z,12.16
2018-08-03T02:58:43.822Z,11.62
2018-08-03T03:04:38.817Z,13.17
2018-08-03T03:10:33.887Z,11.95
2018-08-03T03:16:28.827Z,11.69
2018-08-03T03:22:23.887Z,11.84
2018-08-03T03:28:18.832Z,12.07
2018-08-03T03:34:13.901Z,10.19
2018-08-03T03:40:08.855Z,10.66
2018-08-03T03:46:03.850Z,12.17
2018-08-03T03:51:58.853Z,10.59
2018-08-03T03:57:53.898Z,10.36
2018-08-03T04:03:48.947Z,12.46
2018-08-03T04:09:43.996Z,11.3
2018-08-03T04:15:38.893Z,11.22
2018-08-03T04:21:33.914Z,12.9
2018-08-03T04:27:28.941Z,12.13
2018-08-03T04:33:23.880Z,12.21
2018-08-03T04:39:18.893Z,12.07
2018-08-03T04:45:13.898Z,11.11
2018-08-03T04:51:08.884Z,12.64
2018-08-03T04:57:03.937Z,9.49
2018-08-03T05:02:58.939Z,11.23
2018-08-03T05:08:53.948Z,9.47
2018-08-03T05:14:48.928Z,10.13
2018-08-03T05:20:43.936Z,8.13
2018-08-03T05:26:38.961Z,9.14
2018-08-03T05:32:33.944Z,10.6
2018-08-03T05:38:28.947Z,11.38
2018-08-03T05:44:23.968Z,9.63
2018-08-03T05:50:19.046Z,9.96
2018-08-03T05:56:13.957Z,9.99
2018-08-03T06:02:08.969Z,9.62
2018-08-03T06:08:03.995Z,8.77
2018-08-03T06:13:59.004Z,8.31
2018-08-03T06:19:54.008Z,9.82
2018-08-03T06:25:49.006Z,9.03
2018-08-03T06:31:44.058Z,9.63
2018-08-03T06:37:39.057Z,9.05
2018-08-03T06:43:33.993Z,11.14
2018-08-03T06:49:29.002Z,12.84
2018-08-03T06:55:24.014Z,11.15
2018-08-03T07:01:19.028Z,10.94
2018-08-03T07:07:14.004Z,9.58
2018-08-03T07:13:09.014Z,9.32
2018-08-03T07:19:04.019Z,12.27
2018-08-03T07:24:59.022Z,10.3
2018-08-03T07:30:54.067Z,10.35
2018-08-03T07:36:49.048Z,8.03
2018-08-03T07:42:44.019Z,8.21
2018-08-03T07:48:39.032Z,8.45
2018-08-03T07:54:34.054Z,6.38
2018-08-03T08:00:29.087Z,8.13
2018-08-03T08:06:24.201Z,9.64
2018-08-03T08:12:19.104Z,7.44
2018-08-03T08:18:14.067Z,7.67
2018-08-03T08:24:09.079Z,6.64
2018-08-03T08:30:04.082Z,9.95
2018-08-03T08:35:59.069Z,8.18
2018-08-03T08:41:54.093Z,7.34
2018-08-03T08:47:49.099Z,7.64
2018-08-03T08:53:44.085Z,6.29
2018-08-03T08:59:39.190Z,9.08
2018-08-03T09:05:34.090Z,6.47
2018-08-03T09:11:29.125Z,6.69
2018-08-03T09:17:24.155Z,7.46
2018-08-03T09:23:19.140Z,7.02
2018-08-03T09:29:14.158Z,5.78
2018-08-03T09:35:09.146Z,7.55
2018-08-03T09:41:04.116Z,7.81
2018-08-03T09:46:59.173Z,5.3
2018-08-03T09:52:54.134Z,6.96
2018-08-03T09:58:49.167Z,6.54
2018-08-03T10:04:44.150Z,8.77
2018-08-03T10:10:39.203Z,8.01
2018-08-03T10:16:34.237Z,5.48
2018-08-03T10:22:29.174Z,5.98
2018-08-03T10:28:24.148Z,9.45
2018-08-03T10:34:19.169Z,9.77
2018-08-03T10:40:14.201Z,21.51
2018-08-03T10:46:09.166Z,9.21
2018-08-03T10:52:04.171Z,9.45
2018-08-03T10:57:59.198Z,6.38
2018-08-03T11:03:54.194Z,7.66
2018-08-03T11:09:49.182Z,7.03
2018-08-03T11:15:44.186Z,9.68
2018-08-03T11:21:39.215Z,7.36
2018-08-03T11:27:34.216Z,7.19
2018-08-03T11:33:29.248Z,7.26
2018-08-03T11:39:24.286Z,6.51
2018-08-03T11:45:19.234Z,5.56
2018-08-03T11:51:14.257Z,6.6
2018-08-03T11:57:09.257Z,7.2
2018-08-03T12:03:04.238Z,6.09
2018-08-03T12:08:59.264Z,8.11
2018-08-03T12:14:54.253Z,6.57
2018-08-03T12:20:49.298Z,6.4
2018-08-03T12:26:44.270Z,8.3
2018-08-03T12:32:39.369Z,6.87
2018-08-03T12:38:34.291Z,6.58
2018-08-03T12:44:29.291Z,7.9
2018-08-03T12:50:24.299Z,4.98
2018-08-03T12:56:19.302Z,5.55
2018-08-03T13:02:14.290Z,4.67
2018-08-03T13:08:09.592Z,5.31
2018-08-03T13:14:04.290Z,7.49
2018-08-03T13:19:59.292Z,8.2
2018-08-03T13:25:54.317Z,6.21
2018-08-03T13:31:49.330Z,5.84
2018-08-03T13:37:44.380Z,4.44
2018-08-03T13:43:39.364Z,6.47
2018-08-03T13:49:34.345Z,7.86
2018-08-03T13:55:29.321Z,7.36
2018-08-03T14:01:24.324Z,5.86
2018-08-03T14:07:19.374Z,6.27
2018-08-03T14:13:14.339Z,4.82
2018-08-03T14:19:09.388Z,6.62
2018-08-03T14:25:04.365Z,10.06
2018-08-03T14:30:59.364Z,5.63
2018-08-03T14:36:54.348Z,7.07
2018-08-03T14:42:49.400Z,6.76
2018-08-03T14:48:44.384Z,5.81
2018-08-03T14:54:39.395Z,7.07
2018-08-03T15:00:34.407Z,7.56
2018-08-03T15:06:29.481Z,8.29
2018-08-03T15:12:24.395Z,10.44
2018-08-03T15:18:19.392Z,7.7
2018-08-03T15:24:14.432Z,7.63
2018-08-03T15:30:09.412Z,6.41
2018-08-03T15:36:04.421Z,6.8
2018-08-03T15:41:59.412Z,5.86
2018-08-03T15:47:54.450Z,6.15
2018-08-03T15:53:49.484Z,8.02
2018-08-03T15:59:44.523Z,6.89
2018-08-03T16:05:39.442Z,6.9
2018-08-03T16:11:34.465Z,6.24
2018-08-03T16:17:29.464Z,5.98
2018-08-03T16:23:24.477Z,6.66
2018-08-03T16:29:19.468Z,6.28
2018-08-03T16:35:14.475Z,9.98
2018-08-03T16:41:09.497Z,5.67
2018-08-03T16:47:04.459Z,9.21
2018-08-03T16:52:59.468Z,7.13
2018-08-03T16:58:54.510Z,6.84
2018-08-03T17:04:49.480Z,6.69
2018-08-03T17:10:44.522Z,8.02
2018-08-03T17:16:39.556Z,7.37
2018-08-03T17:22:34.528Z,8.98
2018-08-03T17:28:29.514Z,7.53
2018-08-03T17:34:24.494Z,9.88
2018-08-03T17:40:19.536Z,8.55
2018-08-03T17:46:14.512Z,13.38
2018-08-03T17:52:09.533Z,9.31
2018-08-03T17:58:04.513Z,11.71
2018-08-03T18:03:59.531Z,11.25
2018-08-03T18:09:54.535Z,13.73
2018-08-03T18:15:49.594Z,11.34
2018-08-03T18:21:44.567Z,12.77
2018-08-03T18:27:39.539Z,11.15
2018-08-03T18:33:34.538Z,13.05
2018-08-03T18:39:29.580Z,9.82
2018-08-03T18:45:24.546Z,10.69
2018-08-03T18:51:19.596Z,11.92
2018-08-03T18:57:14.581Z,12.85
2018-08-03T19:03:09.573Z,11.2
2018-08-03T19:09:04.575Z,16.53
2018-08-03T19:14:59.591Z,13.93
2018-08-03T19:20:54.600Z,13.66
2018-08-03T19:26:49.652Z,13.38
2018-08-03T19:32:44.600Z,12.25
2018-08-03T19:38:39.614Z,14
2018-08-03T19:44:34.633Z,13.05
2018-08-03T19:50:29.626Z,15.2
2018-08-03T19:56:24.642Z,13.18
2018-08-03T20:02:19.642Z,14.08
2018-08-03T20:08:14.639Z,15.57
2018-08-03T20:14:09.630Z,12.9
2018-08-03T20:20:04.653Z,14.79
2018-08-03T20:25:59.699Z,12.55
2018-08-03T20:31:54.661Z,12.29
2018-08-03T20:37:49.655Z,15.27
2018-08-03T20:43:44.657Z,17.58
2018-08-03T20:49:39.666Z,15.83
2018-08-03T20:55:34.637Z,17.91
2018-08-03T21:01:29.651Z,13.25
2018-08-03T21:07:24.719Z,13.46
2018-08-03T21:13:19.668Z,13.85
2018-08-03T21:19:14.688Z,13.9
2018-08-03T21:25:09.674Z,13.61
2018-08-03T21:31:04.679Z,12.54
2018-08-03T21:36:59.689Z,15.94
2018-08-03T21:42:54.715Z,14.37
2018-08-03T21:48:49.689Z,15.18
2018-08-03T21:54:44.697Z,15.31
2018-08-03T22:00:39.685Z,12.96
2018-08-03T22:06:34.751Z,12.24
2018-08-03T22:12:29.704Z,15.22
2018-08-03T22:18:24.727Z,14.17
2018-08-03T22:24:19.823Z,12.66
2018-08-03T22:30:14.732Z,13.49
2018-08-03T22:36:09.740Z,13.88
2018-08-03T22:42:04.735Z,17.51
2018-08-03T22:47:59.749Z,14.32
2018-08-03T22:53:54.767Z,14.99
2018-08-03T22:59:49.743Z,14.57
2018-08-03T23:05:44.764Z,13.95
2018-08-03T23:11:39.756Z,14.01
2018-08-03T23:17:34.745Z,11.55
2018-08-03T23:23:29.758Z,15.22
2018-08-03T23:29:24.793Z,13.15
2018-08-03T23:35:19.778Z,13.67
2018-08-03T23:41:14.767Z,14.38
2018-08-03T23:47:09.788Z,16.38
2018-08-03T23:53:04.765Z,17.96
2018-08-03T23:58:59.771Z,16.02
